Skip Navigation Links
NOAA logo - Click to go to the NOAA homepage
NOAA's National Weather Service
Alaska Aviation Weather Unit
  NWS logo - Click to go to the NWS homepage
Left Navbar Graphic     03 AKDT = 11 GMT

   
NOAA is celebrating 200 years of science, service, and stewardship. Visit the NOAA 200th celebration Web site to learn more.
USA.gov is the U.S. Government's official Web portal to all Federal, state and local government Web resources and services.
Facebook
NWS on Facebook

AAWU Home :: Display TAF Add Bookmark
TAF PAGA 290520Z 2906/3006 VRB03KT P6SM FEW060
     FM291000 30003KT P6SM VCSH SCT025 BKN035 OVC050
     FM292100 28003KT P6SM -SN BKN025 OVC050=

METAR PAGA 290557Z AUTO 33003KT 9SM -SN FEW060 M09/M13 A2972= METAR PAGA 290657Z AUTO 34004KT 10SM OVC060 M11/M13 A2973= METAR PAGA 290757Z AUTO 35003KT 9SM FEW110 M12/M14 A2974= METAR PAGA 290857Z AUTO 33004KT 10SM M13/M15 A2975= METAR PAGA 290957Z AUTO 34003KT 10SM OVC050 M14/M16 A2976=
 Alaska TAF Map

NOAA's National Weather Service
Alaska Aviation Weather Unit
6930 Sand Lake Road
Anchorage, AK 99502-1845
Disclaimer
Credits
Glossary
Privacy Policy
About Us
Career Opportunities
Contact AAWU Internet Services Site last modified: April, 17th 2012